createdAt,value
2022-10-25T00:01:46.892Z,1.60
2022-10-25T00:04:14.600Z,1.60
2022-10-25T00:06:44.372Z,1.33
2022-10-25T00:09:11.730Z,1.67
2022-10-25T00:11:38.952Z,1.60
2022-10-25T00:14:07.337Z,1.60
2022-10-25T00:16:36.724Z,1.55
2022-10-25T00:19:06.614Z,1.67
2022-10-25T00:21:33.775Z,1.65
2022-10-25T00:24:00.997Z,1.30
2022-10-25T00:26:28.227Z,1.50
2022-10-25T00:28:55.989Z,1.40
2022-10-25T00:31:23.751Z,1.60
2022-10-25T00:33:51.499Z,1.52
2022-10-25T00:36:22.937Z,1.80
2022-10-25T00:38:50.565Z,1.52
2022-10-25T00:41:22.002Z,1.52
2022-10-25T00:43:50.734Z,1.60
2022-10-25T00:46:21.581Z,1.35
2022-10-25T00:48:54.817Z,1.60
2022-10-25T00:51:24.276Z,1.50
2022-10-25T00:53:52.121Z,1.40
2022-10-25T00:56:27.635Z,1.35
2022-10-25T00:58:58.032Z,1.48
2022-10-25T01:01:25.549Z,1.42
2022-10-25T01:03:57.278Z,1.90
2022-10-25T01:06:27.564Z,1.45
2022-10-25T01:08:55.127Z,1.80
2022-10-25T01:11:22.779Z,1.38
2022-10-25T01:13:50.673Z,1.50
2022-10-25T01:16:27.320Z,1.35
2022-10-25T01:18:57.307Z,1.77
2022-10-25T01:21:39.846Z,1.55
2022-10-25T01:24:16.210Z,1.33
2022-10-25T01:26:49.082Z,1.42
2022-10-25T01:29:16.238Z,1.38
2022-10-25T01:31:49.423Z,1.65
2022-10-25T01:34:20.155Z,1.40
2022-10-25T01:36:57.504Z,1.48
2022-10-25T01:39:33.793Z,1.42
2022-10-25T01:42:10.084Z,1.60
2022-10-25T01:44:43.759Z,1.48
2022-10-25T01:47:19.128Z,1.55
2022-10-25T01:49:49.893Z,1.77
2022-10-25T01:52:21.127Z,1.50
2022-10-25T01:54:48.874Z,1.70
2022-10-25T01:57:21.936Z,1.40
2022-10-25T01:59:49.509Z,1.55
2022-10-25T02:02:36.970Z,1.23
2022-10-25T02:05:19.660Z,1.40
2022-10-25T02:07:56.156Z,1.40
2022-10-25T02:10:32.276Z,1.50
2022-10-25T02:13:02.539Z,1.23
2022-10-25T02:15:40.930Z,1.33
2022-10-25T02:18:12.818Z,1.52
2022-10-25T02:20:44.448Z,1.70
2022-10-25T02:23:14.612Z,1.48
2022-10-25T02:25:42.571Z,1.25
2022-10-25T02:28:11.547Z,1.75
2022-10-25T02:30:41.292Z,1.50
2022-10-25T02:33:08.589Z,1.67
2022-10-25T02:35:35.818Z,1.47
2022-10-25T02:38:06.593Z,1.57
2022-10-25T02:40:33.970Z,1.30
2022-10-25T02:43:01.659Z,1.50
2022-10-25T02:45:28.843Z,1.50
2022-10-25T02:51:00.163Z,1.73
2022-10-25T02:53:27.826Z,1.38
2022-10-25T02:56:02.136Z,1.27
2022-10-25T02:58:33.793Z,1.40
2022-10-25T03:01:01.381Z,1.50
2022-10-25T03:03:30.371Z,1.33
2022-10-25T03:05:57.665Z,1.20
2022-10-25T03:10:55.677Z,1.20
2022-10-25T03:13:23.355Z,1.20
2022-10-25T03:15:50.556Z,1.50
2022-10-25T03:18:18.588Z,1.40
2022-10-25T03:20:46.466Z,1.73
2022-10-25T03:23:13.653Z,1.10
2022-10-25T03:25:43.942Z,1.40
2022-10-25T03:28:11.665Z,1.30
2022-10-25T03:30:39.378Z,1.40
2022-10-25T03:33:07.042Z,1.42
2022-10-25T03:35:34.714Z,1.52
2022-10-25T03:38:05.131Z,1.27
2022-10-25T03:40:32.890Z,1.30
2022-10-25T03:43:02.464Z,1.65
2022-10-25T03:45:32.708Z,1.38
2022-10-25T03:47:59.879Z,1.30
2022-10-25T03:50:27.054Z,1.50
2022-10-25T03:52:54.755Z,1.40
2022-10-25T03:55:21.973Z,1.60
2022-10-25T03:57:49.415Z,1.20
2022-10-25T04:00:16.910Z,1.40
2022-10-25T04:02:47.649Z,1.30
2022-10-25T04:05:14.941Z,1.38
2022-10-25T04:07:42.109Z,1.33
2022-10-25T04:10:09.540Z,1.20
2022-10-25T04:12:37.510Z,1.40
2022-10-25T04:17:34.860Z,1.40
2022-10-25T04:20:02.067Z,1.30
2022-10-25T04:22:29.786Z,1.47
2022-10-25T04:24:57.053Z,1.30
2022-10-25T04:27:24.282Z,1.30
2022-10-25T04:29:51.446Z,1.30
2022-10-25T04:37:14.056Z,1.50
2022-10-25T04:39:41.321Z,1.30
2022-10-25T04:44:36.725Z,1.30
2022-10-25T04:47:04.021Z,1.30
2022-10-25T04:49:31.205Z,1.27
2022-10-25T04:51:58.825Z,1.30
2022-10-25T04:54:29.128Z,1.42
2022-10-25T04:56:56.278Z,1.50
2022-10-25T04:59:23.452Z,1.60
2022-10-25T05:01:52.854Z,1.67
2022-10-25T05:04:20.118Z,1.35
2022-10-25T05:06:47.749Z,1.30
2022-10-25T05:09:14.956Z,1.50
2022-10-25T05:11:44.214Z,1.20
2022-10-25T05:14:11.853Z,1.42
2022-10-25T05:16:39.432Z,1.83
2022-10-25T05:19:06.653Z,1.40
2022-10-25T05:21:35.359Z,1.50
2022-10-25T05:24:03.078Z,1.50
2022-10-25T05:26:30.434Z,1.58
2022-10-25T05:28:58.511Z,1.73
2022-10-25T05:33:54.649Z,1.25
2022-10-25T05:36:22.141Z,1.58
2022-10-25T05:38:49.941Z,1.70
2022-10-25T05:41:17.807Z,1.52
2022-10-25T05:43:45.561Z,1.77
2022-10-25T05:46:14.470Z,1.65
2022-10-25T05:48:48.149Z,1.75
2022-10-25T05:51:33.523Z,1.77
2022-10-25T05:54:02.500Z,1.42
2022-10-25T05:56:30.637Z,1.48
2022-10-25T06:01:28.842Z,1.20
2022-10-25T06:04:02.991Z,1.40
2022-10-25T06:06:33.027Z,1.60
2022-10-25T06:09:01.112Z,1.42
2022-10-25T06:13:55.584Z,1.60
2022-10-25T06:16:22.945Z,1.60
2022-10-25T06:18:50.131Z,1.42
2022-10-25T06:21:18.791Z,1.60
2022-10-25T06:23:46.638Z,1.60
2022-10-25T06:26:19.012Z,1.50
2022-10-25T06:28:48.835Z,1.77
2022-10-25T06:31:17.280Z,1.50
2022-10-25T06:33:44.623Z,1.80
2022-10-25T06:36:14.997Z,1.52
2022-10-25T06:38:43.009Z,1.42
2022-10-25T06:43:38.864Z,1.55
2022-10-25T06:46:10.297Z,1.85
2022-10-25T06:48:38.178Z,1.70
2022-10-25T06:51:06.067Z,1.73
2022-10-25T06:53:33.567Z,1.70
2022-10-25T06:56:04.656Z,1.77
2022-10-25T06:58:33.136Z,1.75
2022-10-25T07:01:04.648Z,1.70
2022-10-25T07:03:35.319Z,2.05
2022-10-25T07:06:02.587Z,1.80
2022-10-25T07:08:29.892Z,1.87
2022-10-25T07:10:57.843Z,1.92
2022-10-25T07:13:25.603Z,2.00
2022-10-25T07:15:52.787Z,1.80
2022-10-25T07:18:19.963Z,1.70
2022-10-25T07:20:48.633Z,1.67
2022-10-25T07:23:17.031Z,1.85
2022-10-25T07:25:44.371Z,2.03
2022-10-25T07:28:12.341Z,1.90
2022-10-25T07:33:06.651Z,2.00
2022-10-25T07:35:41.909Z,1.83
2022-10-25T07:38:20.386Z,2.28
2022-10-25T07:40:48.797Z,1.90
2022-10-25T07:43:15.957Z,2.00
2022-10-25T07:45:45.267Z,2.25
2022-10-25T07:48:12.428Z,2.10
2022-10-25T07:50:39.566Z,2.00
2022-10-25T07:53:06.729Z,2.07
2022-10-25T07:55:33.919Z,2.00
2022-10-25T07:58:05.654Z,2.40
2022-10-25T08:00:33.135Z,1.90
2022-10-25T08:03:00.850Z,1.92
2022-10-25T08:05:28.817Z,2.33
2022-10-25T08:07:56.008Z,1.88
2022-10-25T08:10:23.277Z,2.13
2022-10-25T08:12:50.469Z,2.08
2022-10-25T08:15:18.331Z,2.00
2022-10-25T08:17:48.046Z,1.90
2022-10-25T08:20:15.715Z,1.92
2022-10-25T08:22:42.884Z,2.25
2022-10-25T08:25:10.287Z,2.10
2022-10-25T08:27:37.945Z,2.10
2022-10-25T08:30:05.268Z,1.90
2022-10-25T08:32:32.468Z,2.08
2022-10-25T08:34:59.640Z,2.00
2022-10-25T08:37:26.886Z,1.90
2022-10-25T08:39:55.692Z,1.98
2022-10-25T08:42:31.918Z,2.05
2022-10-25T08:45:06.587Z,2.17
2022-10-25T08:47:35.926Z,2.35
2022-10-25T08:50:12.088Z,1.95
2022-10-25T08:52:50.419Z,2.08
2022-10-25T08:55:27.501Z,1.80
2022-10-25T08:57:55.869Z,1.90
2022-10-25T09:00:24.031Z,2.00
2022-10-25T09:02:58.303Z,2.03
2022-10-25T09:05:50.053Z,2.05
2022-10-25T09:08:36.060Z,2.00
2022-10-25T09:11:28.197Z,2.40
2022-10-25T09:13:58.586Z,2.10
2022-10-25T09:16:49.244Z,2.28
2022-10-25T09:19:19.136Z,2.10
2022-10-25T09:21:52.636Z,2.05
2022-10-25T09:24:26.917Z,2.03
2022-10-25T09:27:12.478Z,3.20
2022-10-25T09:29:48.901Z,2.60
2022-10-25T09:32:29.266Z,2.28
2022-10-25T09:35:00.317Z,2.88
2022-10-25T09:37:48.017Z,2.80
2022-10-25T09:40:35.794Z,2.80
2022-10-25T09:45:37.323Z,2.88
2022-10-25T09:48:25.850Z,2.78
2022-10-25T09:50:56.154Z,2.83
2022-10-25T09:53:24.366Z,2.65
2022-10-25T09:55:59.097Z,2.67
2022-10-25T09:58:26.265Z,3.40
2022-10-25T10:00:54.788Z,2.92
2022-10-25T10:03:22.391Z,2.70
2022-10-25T10:05:58.051Z,2.92
2022-10-25T10:08:26.159Z,2.85
2022-10-25T10:13:24.632Z,2.30
2022-10-25T10:15:59.050Z,2.15
2022-10-25T10:18:33.587Z,2.30
2022-10-25T10:21:13.277Z,2.35
2022-10-25T10:23:52.103Z,2.13
2022-10-25T10:26:29.819Z,2.10
2022-10-25T10:29:18.867Z,2.40
2022-10-25T10:31:50.667Z,2.10
2022-10-25T10:34:25.663Z,2.40
2022-10-25T10:37:11.329Z,2.58
2022-10-25T10:39:50.740Z,2.30
2022-10-25T10:42:19.267Z,2.00
2022-10-25T10:45:01.873Z,2.92
2022-10-25T10:47:32.597Z,3.78
2022-10-25T10:50:00.019Z,16.92
2022-10-25T10:52:32.525Z,7.43
2022-10-25T10:55:01.146Z,3.28
2022-10-25T10:57:36.066Z,3.05
2022-10-25T11:00:04.055Z,3.03
2022-10-25T11:02:39.870Z,2.60
2022-10-25T11:05:21.979Z,2.25
2022-10-25T11:07:56.954Z,2.00
2022-10-25T11:10:26.566Z,3.10
2022-10-25T11:13:05.562Z,2.80
2022-10-25T11:15:43.896Z,2.88
2022-10-25T11:18:15.025Z,2.78
2022-10-25T11:21:03.892Z,4.60
2022-10-25T11:23:36.965Z,3.15
2022-10-25T11:26:12.934Z,3.10
2022-10-25T11:28:49.108Z,2.53
2022-10-25T11:31:16.686Z,2.95
2022-10-25T11:33:46.614Z,2.70
2022-10-25T11:36:37.100Z,3.00
2022-10-25T11:39:13.466Z,4.20
2022-10-25T11:41:51.838Z,2.90
2022-10-25T11:44:37.335Z,3.63
2022-10-25T11:47:11.571Z,3.65
2022-10-25T11:49:57.172Z,3.42
2022-10-25T11:52:24.500Z,3.00
2022-10-25T11:55:01.550Z,3.20
2022-10-25T11:57:50.373Z,3.00
2022-10-25T12:00:22.458Z,3.58
2022-10-25T12:02:59.372Z,3.60
2022-10-25T12:05:47.449Z,3.20
2022-10-25T12:08:17.463Z,3.60
2022-10-25T12:10:48.914Z,4.00
2022-10-25T12:13:31.508Z,3.72
2022-10-25T12:15:59.563Z,4.25
2022-10-25T12:20:54.309Z,4.20
2022-10-25T12:23:23.615Z,3.95
2022-10-25T12:25:56.090Z,4.05
2022-10-25T12:28:41.531Z,3.97
2022-10-25T12:31:20.741Z,4.30
2022-10-25T12:33:54.647Z,4.80
2022-10-25T12:36:26.133Z,4.63
2022-10-25T12:38:53.724Z,5.00
2022-10-25T12:41:28.817Z,4.60
2022-10-25T12:44:17.908Z,5.40
2022-10-25T12:46:53.458Z,5.38
2022-10-25T12:49:20.644Z,5.10
2022-10-25T12:52:07.655Z,5.50
2022-10-25T12:54:39.932Z,5.45
2022-10-25T12:57:09.948Z,5.75
2022-10-25T12:59:43.120Z,5.30
2022-10-25T13:02:13.369Z,6.25
2022-10-25T13:05:02.656Z,5.63
2022-10-25T13:07:32.538Z,6.00
2022-10-25T13:10:06.478Z,5.85
2022-10-25T13:12:33.881Z,6.30
2022-10-25T13:15:01.756Z,6.25
2022-10-25T13:17:41.764Z,6.22
2022-10-25T13:20:34.935Z,6.22
2022-10-25T13:23:02.233Z,6.28
2022-10-25T13:25:32.592Z,5.40
2022-10-25T13:28:11.941Z,5.95
2022-10-25T13:30:39.142Z,4.53
2022-10-25T13:33:24.086Z,3.87
2022-10-25T13:35:51.436Z,3.45
2022-10-25T13:38:25.450Z,2.40
2022-10-25T13:41:05.966Z,2.33
2022-10-25T13:43:36.468Z,2.30
2022-10-25T13:46:03.807Z,2.15
2022-10-25T13:48:32.253Z,2.30
2022-10-25T13:51:01.359Z,1.65
2022-10-25T13:53:38.147Z,1.90
2022-10-25T13:56:23.685Z,1.77
2022-10-25T13:58:53.006Z,1.60
2022-10-25T14:01:21.472Z,1.55
2022-10-25T14:03:48.689Z,1.45
2022-10-25T14:06:25.543Z,1.40
2022-10-25T14:08:59.558Z,1.55
2022-10-25T14:11:47.198Z,1.58
2022-10-25T14:14:20.639Z,1.40
2022-10-25T14:16:56.157Z,1.33
2022-10-25T14:19:37.341Z,1.45
2022-10-25T14:22:05.594Z,1.20
2022-10-25T14:24:33.381Z,1.30
2022-10-25T14:27:04.049Z,1.30
2022-10-25T14:29:31.333Z,1.60
2022-10-25T14:31:59.160Z,1.37
2022-10-25T14:34:28.945Z,1.38
2022-10-25T14:36:57.599Z,1.27
2022-10-25T14:39:30.648Z,1.50
2022-10-25T14:41:59.418Z,1.30
2022-10-25T14:44:29.289Z,1.40
2022-10-25T14:46:57.437Z,1.33
2022-10-25T14:51:56.856Z,1.45
2022-10-25T14:54:27.640Z,1.50
2022-10-25T14:56:56.900Z,1.63
2022-10-25T14:59:32.335Z,1.42
2022-10-25T15:02:05.637Z,1.52
2022-10-25T15:04:34.658Z,2.08
2022-10-25T15:07:03.025Z,1.58
2022-10-25T15:09:42.658Z,1.65
2022-10-25T15:12:13.449Z,1.83
2022-10-25T15:14:41.644Z,1.77
2022-10-25T15:17:38.289Z,1.80
2022-10-25T15:20:14.754Z,1.88
2022-10-25T15:22:44.369Z,2.42
2022-10-25T15:25:29.818Z,1.90
2022-10-25T15:27:58.997Z,2.10
2022-10-25T15:30:39.054Z,1.80
2022-10-25T15:33:10.165Z,2.03
2022-10-25T15:35:41.926Z,2.40
2022-10-25T15:38:11.169Z,1.90
2022-10-25T15:40:38.930Z,2.25
2022-10-25T15:43:06.723Z,2.13
2022-10-25T15:45:34.453Z,2.10
2022-10-25T15:48:02.143Z,2.10
2022-10-25T15:50:29.428Z,1.90
2022-10-25T15:52:56.651Z,2.20
2022-10-25T15:55:25.123Z,2.30
2022-10-25T15:57:52.480Z,2.20
2022-10-25T16:00:24.175Z,2.27
2022-10-25T16:02:54.648Z,2.15
2022-10-25T16:05:32.480Z,2.47
2022-10-25T16:08:00.499Z,2.55
2022-10-25T16:12:59.528Z,2.10
2022-10-25T16:15:27.390Z,2.03
2022-10-25T16:17:55.168Z,2.05
2022-10-25T16:20:23.578Z,2.40
2022-10-25T16:22:51.346Z,2.15
2022-10-25T16:25:19.258Z,2.17
2022-10-25T16:27:47.508Z,2.40
2022-10-25T16:30:16.212Z,2.35
2022-10-25T16:32:44.507Z,2.20
2022-10-25T16:35:15.887Z,2.25
2022-10-25T16:37:44.083Z,2.10
2022-10-25T16:40:17.615Z,2.17
2022-10-25T16:42:44.938Z,2.30
2022-10-25T16:45:18.537Z,2.15
2022-10-25T16:47:45.813Z,2.05
2022-10-25T16:50:13.530Z,1.90
2022-10-25T16:52:42.027Z,2.10
2022-10-25T16:55:10.260Z,2.05
2022-10-25T16:57:40.980Z,2.15
2022-10-25T17:00:11.401Z,2.03
2022-10-25T17:02:39.009Z,1.92
2022-10-25T17:05:06.740Z,2.00
2022-10-25T17:07:34.034Z,1.80
2022-10-25T17:10:04.453Z,2.00
2022-10-25T17:12:31.680Z,2.13
2022-10-25T17:14:59.340Z,2.17
2022-10-25T17:17:26.601Z,2.08
2022-10-25T17:19:53.848Z,1.97
2022-10-25T17:22:22.007Z,2.05
2022-10-25T17:27:16.804Z,1.85
2022-10-25T17:29:43.969Z,2.42
2022-10-25T17:32:11.650Z,1.92
2022-10-25T17:34:40.049Z,2.08
2022-10-25T17:37:27.196Z,2.20
2022-10-25T17:39:54.386Z,2.17
2022-10-25T17:42:23.709Z,2.20
2022-10-25T17:44:51.086Z,1.98
2022-10-25T17:47:18.776Z,1.98
2022-10-25T17:49:46.423Z,2.40
2022-10-25T17:52:14.108Z,2.03
2022-10-25T17:54:41.292Z,2.28
2022-10-25T17:57:08.639Z,2.00
2022-10-25T17:59:35.830Z,2.20
2022-10-25T18:02:03.274Z,1.90
2022-10-25T18:04:41.822Z,2.22
2022-10-25T18:07:18.267Z,2.00
2022-10-25T18:09:45.404Z,1.92
2022-10-25T18:12:15.814Z,2.33
2022-10-25T18:14:42.989Z,2.08
2022-10-25T18:17:10.143Z,1.75
2022-10-25T18:19:37.351Z,2.00
2022-10-25T18:22:04.563Z,2.07
2022-10-25T18:24:33.180Z,2.00
2022-10-25T18:27:00.901Z,2.20
2022-10-25T18:29:31.186Z,2.00
2022-10-25T18:31:58.374Z,1.65
2022-10-25T18:34:25.618Z,2.03
2022-10-25T18:36:52.826Z,2.10
2022-10-25T18:39:20.049Z,2.00
2022-10-25T18:41:47.946Z,2.30
2022-10-25T18:44:15.787Z,2.22
2022-10-25T18:46:43.245Z,2.00
2022-10-25T18:49:14.203Z,2.03
2022-10-25T18:51:42.121Z,1.92
2022-10-25T18:54:11.637Z,2.47
2022-10-25T18:56:39.410Z,2.10
2022-10-25T18:59:07.169Z,2.10
2022-10-25T19:01:35.037Z,2.20
2022-10-25T19:04:03.891Z,2.30
2022-10-25T19:06:33.779Z,2.25
2022-10-25T19:09:03.061Z,2.00
2022-10-25T19:11:30.687Z,2.10
2022-10-25T19:13:58.156Z,2.17
2022-10-25T19:16:25.422Z,2.25
2022-10-25T19:18:55.409Z,2.20
2022-10-25T19:21:22.655Z,2.08
2022-10-25T19:23:50.380Z,2.33
2022-10-25T19:26:19.520Z,1.98
2022-10-25T19:28:46.994Z,2.05
2022-10-25T19:31:16.067Z,2.20
2022-10-25T19:33:47.020Z,2.10
2022-10-25T19:36:14.762Z,2.00
2022-10-25T19:38:43.099Z,1.80
2022-10-25T19:41:11.347Z,2.13
2022-10-25T19:43:38.514Z,2.00
2022-10-25T19:46:06.787Z,1.92
2022-10-25T19:48:35.007Z,1.80
2022-10-25T19:51:06.030Z,2.00
2022-10-25T19:53:33.325Z,2.20
2022-10-25T19:56:01.994Z,2.00
2022-10-25T19:58:30.019Z,1.98
2022-10-25T20:01:04.501Z,1.73
2022-10-25T20:03:31.767Z,1.90
2022-10-25T20:05:59.668Z,2.03
2022-10-25T20:08:27.120Z,1.92
2022-10-25T20:10:54.356Z,2.50
2022-10-25T20:13:22.128Z,1.73
2022-10-25T20:15:51.468Z,2.30
2022-10-25T20:18:19.908Z,1.98
2022-10-25T20:20:52.985Z,1.90
2022-10-25T20:23:21.168Z,1.98
2022-10-25T20:25:51.253Z,1.90
2022-10-25T20:28:18.441Z,2.03
2022-10-25T20:30:45.651Z,2.00
2022-10-25T20:33:12.808Z,1.93
2022-10-25T20:35:41.077Z,2.10
2022-10-25T20:38:11.802Z,1.98
2022-10-25T20:40:39.448Z,2.03
2022-10-25T20:43:07.511Z,2.05
2022-10-25T20:48:02.415Z,1.67
2022-10-25T20:50:30.296Z,1.93
2022-10-25T20:53:09.897Z,1.98
2022-10-25T20:55:39.642Z,1.98
2022-10-25T20:58:06.867Z,1.80
2022-10-25T21:00:34.208Z,1.77
2022-10-25T21:03:01.410Z,2.00
2022-10-25T21:05:29.357Z,1.87
2022-10-25T21:07:56.595Z,1.90
2022-10-25T21:10:23.905Z,1.70
2022-10-25T21:12:51.097Z,1.93
2022-10-25T21:15:18.346Z,1.90
2022-10-25T21:17:50.019Z,1.90
2022-10-25T21:20:18.024Z,2.10
2022-10-25T21:22:46.503Z,1.98
2022-10-25T21:25:13.759Z,2.00
2022-10-25T21:27:41.540Z,2.17
2022-10-25T21:30:09.177Z,2.15
2022-10-25T21:32:36.766Z,1.90
2022-10-25T21:35:04.042Z,2.10
2022-10-25T21:37:31.700Z,1.80
2022-10-25T21:39:58.890Z,2.00
2022-10-25T21:42:26.116Z,2.00
2022-10-25T21:44:53.288Z,2.07
2022-10-25T21:47:20.573Z,1.90
2022-10-25T21:49:47.806Z,2.17
2022-10-25T21:52:16.504Z,2.03
2022-10-25T21:54:43.747Z,2.20
2022-10-25T21:57:14.246Z,2.20
2022-10-25T21:59:41.405Z,2.28
2022-10-25T22:02:09.265Z,2.10
2022-10-25T22:04:38.063Z,1.80
2022-10-25T22:07:05.250Z,2.10
2022-10-25T22:09:32.914Z,2.00
2022-10-25T22:12:00.197Z,2.17
2022-10-25T22:14:27.881Z,2.20
2022-10-25T22:16:55.492Z,2.28
2022-10-25T22:21:53.628Z,2.08
2022-10-25T22:24:21.411Z,1.98
2022-10-25T22:26:51.278Z,2.03
2022-10-25T22:29:18.651Z,2.03
2022-10-25T22:31:45.954Z,2.13
2022-10-25T22:34:13.211Z,2.25
2022-10-25T22:36:42.788Z,2.00
2022-10-25T22:39:10.354Z,2.13
2022-10-25T22:41:37.671Z,1.80
2022-10-25T22:44:05.088Z,2.10
2022-10-25T22:46:36.478Z,2.10
2022-10-25T22:49:10.726Z,1.92
2022-10-25T22:51:38.986Z,2.20
2022-10-25T22:54:06.632Z,2.20
2022-10-25T22:56:34.643Z,2.00
2022-10-25T22:59:03.011Z,2.20
2022-10-25T23:01:33.998Z,2.35
2022-10-25T23:04:01.583Z,2.20
2022-10-25T23:06:30.314Z,1.90
2022-10-25T23:08:58.854Z,2.30
2022-10-25T23:11:27.926Z,2.25
2022-10-25T23:13:55.089Z,2.22
2022-10-25T23:16:22.388Z,2.75
2022-10-25T23:18:49.849Z,2.00
2022-10-25T23:21:19.597Z,2.40
2022-10-25T23:23:47.828Z,2.08
2022-10-25T23:28:42.657Z,2.53
2022-10-25T23:31:11.942Z,2.22
2022-10-25T23:33:40.807Z,2.30
2022-10-25T23:36:19.486Z,2.63
2022-10-25T23:38:55.057Z,2.33
2022-10-25T23:41:22.665Z,1.98
2022-10-25T23:43:50.714Z,2.65
2022-10-25T23:48:48.386Z,2.15
2022-10-25T23:51:16.620Z,2.15
2022-10-25T23:53:45.460Z,2.10
2022-10-25T23:56:14.159Z,2.00
2022-10-25T23:58:41.704Z,2.35
